sensor_id;sensor_type;location;lat;lon;timestamp;P1;durP1;ratioP1;P2;durP2;ratioP2
40707;SDS011;26392;42.696;23.350;2024-01-15T00:00:24;235.23;;;81.00;;
40707;SDS011;26392;42.696;23.350;2024-01-15T00:02:50;225.73;;;77.63;;
40707;SDS011;26392;42.696;23.350;2024-01-15T00:05:15;233.38;;;84.15;;
40707;SDS011;26392;42.696;23.350;2024-01-15T00:07:41;212.50;;;76.18;;
40707;SDS011;26392;42.696;23.350;2024-01-15T00:10:06;220.65;;;76.47;;
40707;SDS011;26392;42.696;23.350;2024-01-15T00:12:32;222.82;;;72.88;;
40707;SDS011;26392;42.696;23.350;2024-01-15T00:14:57;207.15;;;75.53;;
40707;SDS011;26392;42.696;23.350;2024-01-15T00:17:23;214.90;;;75.93;;
40707;SDS011;26392;42.696;23.350;2024-01-15T00:19:48;220.75;;;76.07;;
40707;SDS011;26392;42.696;23.350;2024-01-15T00:22:14;206.43;;;73.82;;
40707;SDS011;26392;42.696;23.350;2024-01-15T00:24:39;228.63;;;74.30;;
40707;SDS011;26392;42.696;23.350;2024-01-15T00:27:05;217.75;;;80.75;;
40707;SDS011;26392;42.696;23.350;2024-01-15T00:29:30;228.65;;;78.88;;
40707;SDS011;26392;42.696;23.350;2024-01-15T00:31:56;216.75;;;76.15;;
40707;SDS011;26392;42.696;23.350;2024-01-15T00:34:21;219.43;;;78.60;;
40707;SDS011;26392;42.696;23.350;2024-01-15T00:36:47;198.45;;;74.40;;
40707;SDS011;26392;42.696;23.350;2024-01-15T00:39:12;218.38;;;73.85;;
40707;SDS011;26392;42.696;23.350;2024-01-15T00:41:38;232.68;;;81.25;;
40707;SDS011;26392;42.696;23.350;2024-01-15T00:44:03;206.63;;;75.97;;
40707;SDS011;26392;42.696;23.350;2024-01-15T00:46:29;212.27;;;77.75;;
40707;SDS011;26392;42.696;23.350;2024-01-15T00:48:54;223.25;;;76.72;;
40707;SDS011;26392;42.696;23.350;2024-01-15T00:51:20;222.60;;;77.63;;
40707;SDS011;26392;42.696;23.350;2024-01-15T00:53:45;202.43;;;73.38;;
40707;SDS011;26392;42.696;23.350;2024-01-15T00:56:11;203.52;;;73.97;;
40707;SDS011;26392;42.696;23.350;2024-01-15T00:58:36;208.65;;;73.25;;
40707;SDS011;26392;42.696;23.350;2024-01-15T01:01:02;208.75;;;72.63;;
40707;SDS011;26392;42.696;23.350;2024-01-15T01:03:28;197.57;;;72.70;;
40707;SDS011;26392;42.696;23.350;2024-01-15T01:05:53;215.98;;;74.45;;
40707;SDS011;26392;42.696;23.350;2024-01-15T01:08:18;190.32;;;69.93;;
40707;SDS011;26392;42.696;23.350;2024-01-15T01:10:44;228.38;;;76.38;;
40707;SDS011;26392;42.696;23.350;2024-01-15T01:13:09;208.07;;;74.88;;
40707;SDS011;26392;42.696;23.350;2024-01-15T01:15:35;200.43;;;73.53;;
40707;SDS011;26392;42.696;23.350;2024-01-15T01:18:00;202.63;;;73.97;;
40707;SDS011;26392;42.696;23.350;2024-01-15T01:20:26;215.65;;;74.40;;
40707;SDS011;26392;42.696;23.350;2024-01-15T01:22:51;193.93;;;70.78;;
40707;SDS011;26392;42.696;23.350;2024-01-15T01:25:17;212.35;;;73.35;;
40707;SDS011;26392;42.696;23.350;2024-01-15T01:27:42;265.73;;;91.30;;
40707;SDS011;26392;42.696;23.350;2024-01-15T01:30:08;240.75;;;77.80;;
40707;SDS011;26392;42.696;23.350;2024-01-15T01:32:34;220.77;;;76.20;;
40707;SDS011;26392;42.696;23.350;2024-01-15T01:35:00;232.90;;;82.75;;
40707;SDS011;26392;42.696;23.350;2024-01-15T01:37:25;225.48;;;74.93;;
40707;SDS011;26392;42.696;23.350;2024-01-15T01:39:51;227.02;;;77.63;;
40707;SDS011;26392;42.696;23.350;2024-01-15T01:42:16;176.85;;;62.72;;
40707;SDS011;26392;42.696;23.350;2024-01-15T01:44:42;217.40;;;68.93;;
40707;SDS011;26392;42.696;23.350;2024-01-15T01:47:07;151.57;;;54.75;;
40707;SDS011;26392;42.696;23.350;2024-01-15T01:49:33;158.88;;;56.15;;
40707;SDS011;26392;42.696;23.350;2024-01-15T01:52:01;178.32;;;64.07;;
40707;SDS011;26392;42.696;23.350;2024-01-15T01:54:31;162.93;;;59.72;;
40707;SDS011;26392;42.696;23.350;2024-01-15T01:56:57;138.68;;;49.85;;
40707;SDS011;26392;42.696;23.350;2024-01-15T01:59:23;159.43;;;50.97;;
40707;SDS011;26392;42.696;23.350;2024-01-15T02:01:53;168.00;;;57.20;;
40707;SDS011;26392;42.696;23.350;2024-01-15T02:04:20;156.60;;;53.85;;
40707;SDS011;26392;42.696;23.350;2024-01-15T02:06:48;156.77;;;55.85;;
40707;SDS011;26392;42.696;23.350;2024-01-15T02:09:15;149.52;;;55.10;;
40707;SDS011;26392;42.696;23.350;2024-01-15T02:11:41;164.98;;;55.22;;
40707;SDS011;26392;42.696;23.350;2024-01-15T02:14:07;183.75;;;62.28;;
40707;SDS011;26392;42.696;23.350;2024-01-15T02:16:34;187.00;;;62.63;;
40707;SDS011;26392;42.696;23.350;2024-01-15T02:19:00;190.90;;;66.05;;
40707;SDS011;26392;42.696;23.350;2024-01-15T02:21:25;233.60;;;80.18;;
40707;SDS011;26392;42.696;23.350;2024-01-15T02:23:53;219.02;;;78.25;;
40707;SDS011;26392;42.696;23.350;2024-01-15T02:26:19;239.52;;;73.60;;
40707;SDS011;26392;42.696;23.350;2024-01-15T02:28:45;255.68;;;79.78;;
40707;SDS011;26392;42.696;23.350;2024-01-15T02:31:10;235.27;;;82.03;;
40707;SDS011;26392;42.696;23.350;2024-01-15T02:33:36;243.43;;;80.78;;
40707;SDS011;26392;42.696;23.350;2024-01-15T02:36:01;221.32;;;79.40;;
40707;SDS011;26392;42.696;23.350;2024-01-15T02:38:27;224.35;;;76.03;;
40707;SDS011;26392;42.696;23.350;2024-01-15T02:40:53;220.40;;;75.70;;
40707;SDS011;26392;42.696;23.350;2024-01-15T02:43:18;192.55;;;64.63;;
40707;SDS011;26392;42.696;23.350;2024-01-15T02:45:44;183.57;;;62.55;;
40707;SDS011;26392;42.696;23.350;2024-01-15T02:48:11;175.63;;;55.75;;
40707;SDS011;26392;42.696;23.350;2024-01-15T02:50:36;166.88;;;57.00;;
40707;SDS011;26392;42.696;23.350;2024-01-15T02:53:02;121.63;;;44.15;;
40707;SDS011;26392;42.696;23.350;2024-01-15T02:55:27;160.15;;;50.22;;
40707;SDS011;26392;42.696;23.350;2024-01-15T02:57:54;138.35;;;43.75;;
40707;SDS011;26392;42.696;23.350;2024-01-15T03:00:20;120.75;;;41.10;;
40707;SDS011;26392;42.696;23.350;2024-01-15T03:02:45;127.75;;;40.88;;
40707;SDS011;26392;42.696;23.350;2024-01-15T03:05:11;108.80;;;36.88;;
40707;SDS011;26392;42.696;23.350;2024-01-15T03:07:36;101.63;;;35.38;;
40707;SDS011;26392;42.696;23.350;2024-01-15T03:10:02;102.43;;;35.92;;
40707;SDS011;26392;42.696;23.350;2024-01-15T03:12:28;89.80;;;32.55;;
40707;SDS011;26392;42.696;23.350;2024-01-15T03:14:53;84.75;;;30.92;;
40707;SDS011;26392;42.696;23.350;2024-01-15T03:17:19;79.43;;;29.40;;
40707;SDS011;26392;42.696;23.350;2024-01-15T03:19:44;90.68;;;26.38;;
40707;SDS011;26392;42.696;23.350;2024-01-15T03:22:10;78.10;;;28.20;;
40707;SDS011;26392;42.696;23.350;2024-01-15T03:24:35;81.60;;;26.75;;
40707;SDS011;26392;42.696;23.350;2024-01-15T03:27:01;86.82;;;25.52;;
40707;SDS011;26392;42.696;23.350;2024-01-15T03:29:27;53.30;;;21.13;;
40707;SDS011;26392;42.696;23.350;2024-01-15T03:31:53;61.95;;;20.90;;
40707;SDS011;26392;42.696;23.350;2024-01-15T03:34:18;63.85;;;22.88;;
40707;SDS011;26392;42.696;23.350;2024-01-15T03:36:44;72.45;;;24.30;;
40707;SDS011;26392;42.696;23.350;2024-01-15T03:39:09;57.45;;;20.35;;
40707;SDS011;26392;42.696;23.350;2024-01-15T03:41:35;67.53;;;22.55;;
40707;SDS011;26392;42.696;23.350;2024-01-15T03:44:00;64.75;;;22.35;;
40707;SDS011;26392;42.696;23.350;2024-01-15T03:46:26;68.35;;;23.20;;
40707;SDS011;26392;42.696;23.350;2024-01-15T03:48:52;66.70;;;24.83;;
40707;SDS011;26392;42.696;23.350;2024-01-15T03:51:17;62.95;;;22.98;;
40707;SDS011;26392;42.696;23.350;2024-01-15T03:53:43;61.83;;;24.13;;
40707;SDS011;26392;42.696;23.350;2024-01-15T03:56:09;79.05;;;25.60;;
40707;SDS011;26392;42.696;23.350;2024-01-15T03:58:34;65.93;;;23.05;;
40707;SDS011;26392;42.696;23.350;2024-01-15T04:01:00;66.70;;;24.10;;
40707;SDS011;26392;42.696;23.350;2024-01-15T04:03:25;62.97;;;21.35;;
40707;SDS011;26392;42.696;23.350;2024-01-15T04:05:51;55.22;;;19.88;;
40707;SDS011;26392;42.696;23.350;2024-01-15T04:08:16;59.47;;;21.05;;
40707;SDS011;26392;42.696;23.350;2024-01-15T04:10:42;52.63;;;20.40;;
40707;SDS011;26392;42.696;23.350;2024-01-15T04:13:07;56.53;;;21.65;;
40707;SDS011;26392;42.696;23.350;2024-01-15T04:15:33;72.65;;;26.33;;
40707;SDS011;26392;42.696;23.350;2024-01-15T04:17:58;62.35;;;23.08;;
40707;SDS011;26392;42.696;23.350;2024-01-15T04:20:24;62.67;;;22.73;;
40707;SDS011;26392;42.696;23.350;2024-01-15T04:22:49;71.85;;;23.67;;
40707;SDS011;26392;42.696;23.350;2024-01-15T04:25:15;63.60;;;23.75;;
40707;SDS011;26392;42.696;23.350;2024-01-15T04:27:40;61.42;;;22.45;;
40707;SDS011;26392;42.696;23.350;2024-01-15T04:30:06;63.53;;;22.50;;
40707;SDS011;26392;42.696;23.350;2024-01-15T04:32:32;55.58;;;21.33;;
40707;SDS011;26392;42.696;23.350;2024-01-15T04:34:57;63.42;;;23.35;;
40707;SDS011;26392;42.696;23.350;2024-01-15T04:37:23;58.80;;;21.38;;
40707;SDS011;26392;42.696;23.350;2024-01-15T04:39:48;57.80;;;21.60;;
40707;SDS011;26392;42.696;23.350;2024-01-15T04:42:14;71.43;;;22.77;;
40707;SDS011;26392;42.696;23.350;2024-01-15T04:44:39;60.08;;;22.40;;
40707;SDS011;26392;42.696;23.350;2024-01-15T04:47:04;73.97;;;28.77;;
40707;SDS011;26392;42.696;23.350;2024-01-15T04:49:30;62.50;;;24.60;;
40707;SDS011;26392;42.696;23.350;2024-01-15T04:51:55;70.32;;;24.25;;
40707;SDS011;26392;42.696;23.350;2024-01-15T04:54:21;71.57;;;24.85;;
40707;SDS011;26392;42.696;23.350;2024-01-15T04:56:46;71.20;;;26.30;;
40707;SDS011;26392;42.696;23.350;2024-01-15T04:59:12;74.97;;;25.77;;
40707;SDS011;26392;42.696;23.350;2024-01-15T05:01:39;64.47;;;25.45;;
40707;SDS011;26392;42.696;23.350;2024-01-15T05:04:05;60.13;;;23.27;;
40707;SDS011;26392;42.696;23.350;2024-01-15T05:06:30;265.17;;;69.22;;
40707;SDS011;26392;42.696;23.350;2024-01-15T05:08:56;102.72;;;33.40;;
40707;SDS011;26392;42.696;23.350;2024-01-15T05:11:22;84.03;;;28.70;;
40707;SDS011;26392;42.696;23.350;2024-01-15T05:13:47;74.55;;;28.33;;
40707;SDS011;26392;42.696;23.350;2024-01-15T05:16:13;91.50;;;32.58;;
40707;SDS011;26392;42.696;23.350;2024-01-15T05:18:38;93.28;;;33.53;;
40707;SDS011;26392;42.696;23.350;2024-01-15T05:21:04;92.10;;;33.30;;
40707;SDS011;26392;42.696;23.350;2024-01-15T05:23:30;83.00;;;30.52;;
40707;SDS011;26392;42.696;23.350;2024-01-15T05:25:56;89.65;;;29.52;;
40707;SDS011;26392;42.696;23.350;2024-01-15T05:28:22;80.50;;;28.33;;
40707;SDS011;26392;42.696;23.350;2024-01-15T05:30:47;87.25;;;30.30;;
40707;SDS011;26392;42.696;23.350;2024-01-15T05:33:13;91.50;;;32.25;;
40707;SDS011;26392;42.696;23.350;2024-01-15T05:35:38;94.32;;;33.65;;
40707;SDS011;26392;42.696;23.350;2024-01-15T05:38:04;97.30;;;34.13;;
40707;SDS011;26392;42.696;23.350;2024-01-15T05:40:29;88.03;;;36.05;;
40707;SDS011;26392;42.696;23.350;2024-01-15T05:42:55;94.30;;;31.67;;
40707;SDS011;26392;42.696;23.350;2024-01-15T05:45:20;93.30;;;33.42;;
40707;SDS011;26392;42.696;23.350;2024-01-15T05:47:46;89.32;;;32.53;;
40707;SDS011;26392;42.696;23.350;2024-01-15T05:50:11;85.38;;;29.13;;
40707;SDS011;26392;42.696;23.350;2024-01-15T05:52:37;68.53;;;27.08;;
40707;SDS011;26392;42.696;23.350;2024-01-15T05:55:03;66.75;;;25.98;;
40707;SDS011;26392;42.696;23.350;2024-01-15T05:57:28;79.57;;;26.65;;
40707;SDS011;26392;42.696;23.350;2024-01-15T05:59:54;68.50;;;25.42;;
40707;SDS011;26392;42.696;23.350;2024-01-15T06:02:19;60.38;;;23.33;;
40707;SDS011;26392;42.696;23.350;2024-01-15T06:04:45;73.53;;;26.70;;
40707;SDS011;26392;42.696;23.350;2024-01-15T06:07:10;67.40;;;24.33;;
40707;SDS011;26392;42.696;23.350;2024-01-15T06:09:36;61.13;;;25.42;;
40707;SDS011;26392;42.696;23.350;2024-01-15T06:12:03;72.85;;;25.55;;
40707;SDS011;26392;42.696;23.350;2024-01-15T06:14:29;68.93;;;28.58;;
40707;SDS011;26392;42.696;23.350;2024-01-15T06:16:54;77.00;;;30.33;;
40707;SDS011;26392;42.696;23.350;2024-01-15T06:19:20;77.32;;;30.73;;
40707;SDS011;26392;42.696;23.350;2024-01-15T06:21:46;87.82;;;33.70;;
40707;SDS011;26392;42.696;23.350;2024-01-15T06:24:11;271.20;;;130.20;;
40707;SDS011;26392;42.696;23.350;2024-01-15T06:26:38;101.95;;;40.33;;
40707;SDS011;26392;42.696;23.350;2024-01-15T06:29:04;101.43;;;36.95;;
40707;SDS011;26392;42.696;23.350;2024-01-15T06:31:29;95.05;;;35.67;;
40707;SDS011;26392;42.696;23.350;2024-01-15T06:33:55;87.38;;;36.17;;
40707;SDS011;26392;42.696;23.350;2024-01-15T06:36:21;95.35;;;36.72;;
40707;SDS011;26392;42.696;23.350;2024-01-15T06:38:46;96.72;;;35.50;;
40707;SDS011;26392;42.696;23.350;2024-01-15T06:41:12;91.13;;;34.97;;
40707;SDS011;26392;42.696;23.350;2024-01-15T06:43:37;84.20;;;33.95;;
40707;SDS011;26392;42.696;23.350;2024-01-15T06:46:03;108.50;;;38.42;;
40707;SDS011;26392;42.696;23.350;2024-01-15T06:48:28;104.78;;;38.22;;
40707;SDS011;26392;42.696;23.350;2024-01-15T06:50:54;88.15;;;36.78;;
40707;SDS011;26392;42.696;23.350;2024-01-15T06:53:19;86.75;;;36.67;;
40707;SDS011;26392;42.696;23.350;2024-01-15T06:55:45;95.35;;;36.42;;
40707;SDS011;26392;42.696;23.350;2024-01-15T06:58:11;90.93;;;35.58;;
40707;SDS011;26392;42.696;23.350;2024-01-15T07:00:37;91.82;;;37.90;;
40707;SDS011;26392;42.696;23.350;2024-01-15T07:03:03;99.80;;;37.58;;
40707;SDS011;26392;42.696;23.350;2024-01-15T07:05:28;86.65;;;35.40;;
40707;SDS011;26392;42.696;23.350;2024-01-15T07:07:55;90.93;;;37.65;;
40707;SDS011;26392;42.696;23.350;2024-01-15T07:10:20;102.97;;;38.90;;
40707;SDS011;26392;42.696;23.350;2024-01-15T07:12:46;115.22;;;42.55;;
40707;SDS011;26392;42.696;23.350;2024-01-15T07:15:11;107.28;;;43.42;;
40707;SDS011;26392;42.696;23.350;2024-01-15T07:17:37;106.72;;;43.47;;
40707;SDS011;26392;42.696;23.350;2024-01-15T07:20:05;113.45;;;44.70;;
40707;SDS011;26392;42.696;23.350;2024-01-15T07:22:33;126.18;;;45.75;;
40707;SDS011;26392;42.696;23.350;2024-01-15T07:24:58;124.85;;;45.67;;
40707;SDS011;26392;42.696;23.350;2024-01-15T07:27:24;136.35;;;52.03;;
40707;SDS011;26392;42.696;23.350;2024-01-15T07:29:49;123.63;;;48.10;;
40707;SDS011;26392;42.696;23.350;2024-01-15T07:32:15;128.45;;;50.03;;
40707;SDS011;26392;42.696;23.350;2024-01-15T07:34:41;132.73;;;48.30;;
40707;SDS011;26392;42.696;23.350;2024-01-15T07:37:06;128.57;;;50.25;;
40707;SDS011;26392;42.696;23.350;2024-01-15T07:39:32;119.10;;;45.22;;
40707;SDS011;26392;42.696;23.350;2024-01-15T07:41:58;120.57;;;46.25;;
40707;SDS011;26392;42.696;23.350;2024-01-15T07:44:24;125.63;;;50.70;;
40707;SDS011;26392;42.696;23.350;2024-01-15T07:46:49;122.57;;;47.22;;
40707;SDS011;26392;42.696;23.350;2024-01-15T07:49:15;130.70;;;49.05;;
40707;SDS011;26392;42.696;23.350;2024-01-15T07:51:41;123.93;;;46.65;;
40707;SDS011;26392;42.696;23.350;2024-01-15T07:54:08;138.82;;;49.33;;
40707;SDS011;26392;42.696;23.350;2024-01-15T07:56:34;135.55;;;51.22;;
40707;SDS011;26392;42.696;23.350;2024-01-15T07:59:17;140.30;;;50.67;;
40707;SDS011;26392;42.696;23.350;2024-01-15T08:01:43;138.18;;;50.58;;
40707;SDS011;26392;42.696;23.350;2024-01-15T08:04:08;131.13;;;51.45;;
40707;SDS011;26392;42.696;23.350;2024-01-15T08:06:34;142.43;;;53.40;;
40707;SDS011;26392;42.696;23.350;2024-01-15T08:09:00;156.00;;;60.05;;
40707;SDS011;26392;42.696;23.350;2024-01-15T08:11:25;183.63;;;71.22;;
40707;SDS011;26392;42.696;23.350;2024-01-15T08:13:51;190.30;;;74.15;;
40707;SDS011;26392;42.696;23.350;2024-01-15T08:16:17;188.73;;;72.28;;
40707;SDS011;26392;42.696;23.350;2024-01-15T08:18:42;179.98;;;72.47;;
40707;SDS011;26392;42.696;23.350;2024-01-15T08:21:09;173.05;;;71.95;;
40707;SDS011;26392;42.696;23.350;2024-01-15T08:23:35;186.80;;;69.50;;
40707;SDS011;26392;42.696;23.350;2024-01-15T08:26:00;196.10;;;69.63;;
40707;SDS011;26392;42.696;23.350;2024-01-15T08:28:25;184.73;;;71.07;;
40707;SDS011;26392;42.696;23.350;2024-01-15T08:30:51;156.55;;;63.80;;
40707;SDS011;26392;42.696;23.350;2024-01-15T08:33:16;167.88;;;65.78;;
40707;SDS011;26392;42.696;23.350;2024-01-15T08:35:42;170.10;;;66.90;;
40707;SDS011;26392;42.696;23.350;2024-01-15T08:38:07;171.18;;;65.10;;
40707;SDS011;26392;42.696;23.350;2024-01-15T08:40:33;165.18;;;65.70;;
40707;SDS011;26392;42.696;23.350;2024-01-15T08:42:58;161.13;;;63.08;;
40707;SDS011;26392;42.696;23.350;2024-01-15T08:45:24;150.77;;;61.33;;
40707;SDS011;26392;42.696;23.350;2024-01-15T08:47:49;149.02;;;57.08;;
40707;SDS011;26392;42.696;23.350;2024-01-15T08:50:14;145.35;;;55.45;;
40707;SDS011;26392;42.696;23.350;2024-01-15T08:52:40;142.57;;;55.50;;
40707;SDS011;26392;42.696;23.350;2024-01-15T08:55:05;155.80;;;54.55;;
40707;SDS011;26392;42.696;23.350;2024-01-15T08:57:32;127.35;;;49.83;;
40707;SDS011;26392;42.696;23.350;2024-01-15T08:59:57;128.63;;;50.40;;
40707;SDS011;26392;42.696;23.350;2024-01-15T09:02:24;119.78;;;48.78;;
40707;SDS011;26392;42.696;23.350;2024-01-15T09:04:50;119.47;;;48.10;;
40707;SDS011;26392;42.696;23.350;2024-01-15T09:07:15;119.82;;;51.05;;
40707;SDS011;26392;42.696;23.350;2024-01-15T09:09:40;123.05;;;49.42;;
40707;SDS011;26392;42.696;23.350;2024-01-15T09:12:08;127.25;;;51.03;;
40707;SDS011;26392;42.696;23.350;2024-01-15T09:14:34;117.85;;;48.80;;
40707;SDS011;26392;42.696;23.350;2024-01-15T09:17:00;110.93;;;45.72;;
40707;SDS011;26392;42.696;23.350;2024-01-15T09:19:26;106.88;;;43.80;;
40707;SDS011;26392;42.696;23.350;2024-01-15T09:21:52;106.10;;;42.75;;
40707;SDS011;26392;42.696;23.350;2024-01-15T09:24:17;124.60;;;44.47;;
40707;SDS011;26392;42.696;23.350;2024-01-15T09:26:43;93.78;;;36.92;;
40707;SDS011;26392;42.696;23.350;2024-01-15T09:29:08;102.13;;;39.65;;
40707;SDS011;26392;42.696;23.350;2024-01-15T09:31:35;105.18;;;38.95;;
40707;SDS011;26392;42.696;23.350;2024-01-15T09:34:00;97.18;;;39.15;;
40707;SDS011;26392;42.696;23.350;2024-01-15T09:36:27;108.50;;;42.20;;
40707;SDS011;26392;42.696;23.350;2024-01-15T09:38:52;105.05;;;39.67;;
40707;SDS011;26392;42.696;23.350;2024-01-15T09:41:18;112.82;;;41.28;;
40707;SDS011;26392;42.696;23.350;2024-01-15T09:43:43;117.28;;;45.40;;
40707;SDS011;26392;42.696;23.350;2024-01-15T09:46:10;103.68;;;43.22;;
40707;SDS011;26392;42.696;23.350;2024-01-15T09:48:36;108.28;;;45.63;;
40707;SDS011;26392;42.696;23.350;2024-01-15T09:51:03;124.18;;;47.80;;
40707;SDS011;26392;42.696;23.350;2024-01-15T09:53:31;127.32;;;47.08;;
40707;SDS011;26392;42.696;23.350;2024-01-15T09:55:57;106.22;;;41.63;;
40707;SDS011;26392;42.696;23.350;2024-01-15T09:58:23;84.40;;;36.30;;
40707;SDS011;26392;42.696;23.350;2024-01-15T10:00:49;94.43;;;39.40;;
40707;SDS011;26392;42.696;23.350;2024-01-15T10:03:16;97.80;;;38.47;;
40707;SDS011;26392;42.696;23.350;2024-01-15T10:05:43;105.28;;;42.45;;
40707;SDS011;26392;42.696;23.350;2024-01-15T10:08:09;108.55;;;42.58;;
40707;SDS011;26392;42.696;23.350;2024-01-15T10:10:36;114.35;;;40.80;;
40707;SDS011;26392;42.696;23.350;2024-01-15T10:13:01;117.43;;;43.70;;
40707;SDS011;26392;42.696;23.350;2024-01-15T10:15:29;104.88;;;39.60;;
40707;SDS011;26392;42.696;23.350;2024-01-15T10:17:54;101.43;;;39.83;;
40707;SDS011;26392;42.696;23.350;2024-01-15T10:20:20;100.53;;;41.42;;
40707;SDS011;26392;42.696;23.350;2024-01-15T10:22:47;96.78;;;39.10;;
40707;SDS011;26392;42.696;23.350;2024-01-15T10:25:13;112.57;;;39.65;;
40707;SDS011;26392;42.696;23.350;2024-01-15T10:27:42;116.45;;;41.25;;
40707;SDS011;26392;42.696;23.350;2024-01-15T10:30:09;110.88;;;41.22;;
40707;SDS011;26392;42.696;23.350;2024-01-15T10:32:35;97.47;;;37.28;;
40707;SDS011;26392;42.696;23.350;2024-01-15T10:35:01;99.45;;;37.88;;
40707;SDS011;26392;42.696;23.350;2024-01-15T10:37:27;96.03;;;35.92;;
40707;SDS011;26392;42.696;23.350;2024-01-15T10:39:52;110.63;;;42.28;;
40707;SDS011;26392;42.696;23.350;2024-01-15T10:42:18;103.57;;;41.22;;
40707;SDS011;26392;42.696;23.350;2024-01-15T10:44:44;113.22;;;40.72;;
40707;SDS011;26392;42.696;23.350;2024-01-15T10:47:12;113.38;;;40.63;;
40707;SDS011;26392;42.696;23.350;2024-01-15T10:49:37;93.40;;;38.90;;
40707;SDS011;26392;42.696;23.350;2024-01-15T10:52:04;102.35;;;40.13;;
40707;SDS011;26392;42.696;23.350;2024-01-15T10:54:30;101.95;;;41.42;;
40707;SDS011;26392;42.696;23.350;2024-01-15T10:56:57;116.80;;;45.10;;
40707;SDS011;26392;42.696;23.350;2024-01-15T10:59:22;110.50;;;42.13;;
40707;SDS011;26392;42.696;23.350;2024-01-15T11:01:48;97.80;;;37.40;;
40707;SDS011;26392;42.696;23.350;2024-01-15T11:04:15;73.57;;;32.42;;
40707;SDS011;26392;42.696;23.350;2024-01-15T11:06:45;83.57;;;35.13;;
40707;SDS011;26392;42.696;23.350;2024-01-15T11:09:15;74.05;;;32.17;;
40707;SDS011;26392;42.696;23.350;2024-01-15T11:11:46;100.07;;;36.53;;
40707;SDS011;26392;42.696;23.350;2024-01-15T11:17:05;78.80;;;31.27;;
40707;SDS011;26392;42.696;23.350;2024-01-15T11:19:37;76.00;;;28.50;;
40707;SDS011;26392;42.696;23.350;2024-01-15T11:22:07;56.88;;;20.77;;
40707;SDS011;26392;42.696;23.350;2024-01-15T11:24:51;60.45;;;24.48;;
40707;SDS011;26392;42.696;23.350;2024-01-15T11:27:17;56.83;;;24.42;;
40707;SDS011;26392;42.696;23.350;2024-01-15T11:30:09;55.63;;;23.45;;
40707;SDS011;26392;42.696;23.350;2024-01-15T11:32:36;51.67;;;23.80;;
40707;SDS011;26392;42.696;23.350;2024-01-15T11:35:03;64.82;;;24.65;;
40707;SDS011;26392;42.696;23.350;2024-01-15T11:37:29;63.35;;;24.85;;
40707;SDS011;26392;42.696;23.350;2024-01-15T11:40:20;54.15;;;23.77;;
40707;SDS011;26392;42.696;23.350;2024-01-15T11:42:48;48.15;;;21.88;;
40707;SDS011;26392;42.696;23.350;2024-01-15T11:45:21;54.80;;;21.90;;
40707;SDS011;26392;42.696;23.350;2024-01-15T11:50:37;53.75;;;21.25;;
40707;SDS011;26392;42.696;23.350;2024-01-15T11:53:51;48.05;;;20.65;;
40707;SDS011;26392;42.696;23.350;2024-01-15T11:55:57;57.72;;;21.13;;
40707;SDS011;26392;42.696;23.350;2024-01-15T11:58:24;49.88;;;21.60;;
40707;SDS011;26392;42.696;23.350;2024-01-15T12:00:51;48.20;;;18.60;;
40707;SDS011;26392;42.696;23.350;2024-01-15T12:03:17;42.78;;;19.95;;
40707;SDS011;26392;42.696;23.350;2024-01-15T12:05:46;44.17;;;20.15;;
40707;SDS011;26392;42.696;23.350;2024-01-15T12:08:11;55.25;;;20.60;;
40707;SDS011;26392;42.696;23.350;2024-01-15T12:10:37;50.85;;;19.80;;
40707;SDS011;26392;42.696;23.350;2024-01-15T12:13:13;40.80;;;18.83;;
40707;SDS011;26392;42.696;23.350;2024-01-15T12:15:40;49.08;;;19.90;;
40707;SDS011;26392;42.696;23.350;2024-01-15T12:18:07;48.85;;;18.65;;
40707;SDS011;26392;42.696;23.350;2024-01-15T12:20:34;46.75;;;18.23;;
40707;SDS011;26392;42.696;23.350;2024-01-15T12:23:00;46.92;;;20.10;;
40707;SDS011;26392;42.696;23.350;2024-01-15T12:25:26;54.80;;;20.55;;
40707;SDS011;26392;42.696;23.350;2024-01-15T12:27:53;65.38;;;25.02;;
40707;SDS011;26392;42.696;23.350;2024-01-15T12:30:19;54.58;;;21.17;;
40707;SDS011;26392;42.696;23.350;2024-01-15T12:32:45;60.88;;;24.08;;
40707;SDS011;26392;42.696;23.350;2024-01-15T12:35:12;68.45;;;27.05;;
40707;SDS011;26392;42.696;23.350;2024-01-15T12:37:41;75.72;;;28.40;;
40707;SDS011;26392;42.696;23.350;2024-01-15T12:40:08;65.70;;;25.73;;
40707;SDS011;26392;42.696;23.350;2024-01-15T12:42:37;74.18;;;28.42;;
40707;SDS011;26392;42.696;23.350;2024-01-15T12:45:05;80.72;;;30.33;;
40707;SDS011;26392;42.696;23.350;2024-01-15T12:47:32;76.85;;;29.70;;
40707;SDS011;26392;42.696;23.350;2024-01-15T12:49:58;87.15;;;39.65;;
40707;SDS011;26392;42.696;23.350;2024-01-15T12:52:27;70.93;;;31.80;;
40707;SDS011;26392;42.696;23.350;2024-01-15T12:54:53;65.18;;;29.42;;
40707;SDS011;26392;42.696;23.350;2024-01-15T12:57:19;68.22;;;28.27;;
40707;SDS011;26392;42.696;23.350;2024-01-15T12:59:45;66.53;;;28.33;;
40707;SDS011;26392;42.696;23.350;2024-01-15T13:02:14;71.22;;;26.65;;
40707;SDS011;26392;42.696;23.350;2024-01-15T13:04:39;60.55;;;26.80;;
40707;SDS011;26392;42.696;23.350;2024-01-15T13:07:05;61.45;;;26.02;;
40707;SDS011;26392;42.696;23.350;2024-01-15T13:09:32;64.03;;;25.67;;
40707;SDS011;26392;42.696;23.350;2024-01-15T13:11:58;64.57;;;25.25;;
40707;SDS011;26392;42.696;23.350;2024-01-15T13:14:23;59.47;;;24.42;;
40707;SDS011;26392;42.696;23.350;2024-01-15T13:16:49;60.70;;;24.42;;
40707;SDS011;26392;42.696;23.350;2024-01-15T13:19:14;56.30;;;24.27;;
40707;SDS011;26392;42.696;23.350;2024-01-15T13:21:40;45.95;;;21.13;;
40707;SDS011;26392;42.696;23.350;2024-01-15T13:24:06;59.58;;;20.98;;
40707;SDS011;26392;42.696;23.350;2024-01-15T13:26:35;51.15;;;20.95;;
40707;SDS011;26392;42.696;23.350;2024-01-15T13:29:04;58.50;;;21.45;;
40707;SDS011;26392;42.696;23.350;2024-01-15T13:31:30;54.03;;;22.45;;
40707;SDS011;26392;42.696;23.350;2024-01-15T13:33:56;50.72;;;23.10;;
40707;SDS011;26392;42.696;23.350;2024-01-15T13:36:22;62.38;;;23.90;;
40707;SDS011;26392;42.696;23.350;2024-01-15T13:38:51;48.88;;;20.20;;
40707;SDS011;26392;42.696;23.350;2024-01-15T13:41:18;55.17;;;21.83;;
40707;SDS011;26392;42.696;23.350;2024-01-15T13:43:53;48.28;;;21.38;;
40707;SDS011;26392;42.696;23.350;2024-01-15T13:46:23;52.13;;;23.70;;
40707;SDS011;26392;42.696;23.350;2024-01-15T13:48:51;61.03;;;23.30;;
40707;SDS011;26392;42.696;23.350;2024-01-15T13:51:17;61.53;;;22.92;;
40707;SDS011;26392;42.696;23.350;2024-01-15T13:53:43;53.78;;;22.27;;
40707;SDS011;26392;42.696;23.350;2024-01-15T13:56:08;63.28;;;26.27;;
40707;SDS011;26392;42.696;23.350;2024-01-15T13:58:35;66.30;;;25.75;;
40707;SDS011;26392;42.696;23.350;2024-01-15T14:01:02;67.40;;;25.67;;
40707;SDS011;26392;42.696;23.350;2024-01-15T14:03:31;67.95;;;28.50;;